KMKO/MKO METAR and TAF weather

Enter ICAO airport designator
Station Type Date Time Source
KMKO METAR 2021/09/23 22:53 UTC NOAA

KMKO 232253Z AUTO 05003KT 10SM CLR 27/06 A3004 RMK AO2 SLP169 T02720061


Station Type Date Time Source
KMKO Decoded METAR 2021/09/23 22:53 UTC NOAA

MUSKOGEE DAVIS FIELD, OK, United States (KMKO) 35-39N 95-22W 185M
Sep 23, 2021 - 06:53 PM EDT / 2021.09.23 2253 UTC
Wind: from the NE (050 degrees) at 3 MPH (3 KT):0
Visibility: 10 mile(s):0
Sky conditions: clear
Temperature: 81.0 F (27.2 C)
Dew Point: 43.0 F (6.1 C)
Relative Humidity: 26%
Pressure (altimeter): 30.04 in. Hg (1017 hPa)
ob: KMKO 232253Z AUTO 05003KT 10SM CLR 27/06 A3004 RMK AO2 SLP169 T02720061
cycle: 23

Station Type Date Time Source
KMKO TAF UTC NOAA

Error!

Example: see airport list